createdAt,value
2023-05-12T00:01:54.326Z,97.36
2023-05-12T00:03:58.013Z,97.41
2023-05-12T00:06:03.596Z,97.38
2023-05-12T00:08:08.510Z,97.28
2023-05-12T00:10:12.417Z,97.16
2023-05-12T00:12:15.924Z,97.44
2023-05-12T00:14:21.229Z,97.26
2023-05-12T00:16:24.666Z,97.27
2023-05-12T00:18:30.314Z,97.13
2023-05-12T00:20:33.737Z,97.10
2023-05-12T00:22:37.277Z,97.21
2023-05-12T00:24:42.196Z,97.25
2023-05-12T00:26:45.735Z,97.52
2023-05-12T00:28:49.202Z,97.60
2023-05-12T00:30:52.641Z,97.49
2023-05-12T00:32:56.166Z,97.38
2023-05-12T00:34:58.767Z,97.28
2023-05-12T00:37:02.167Z,97.23
2023-05-12T00:39:05.740Z,97.30
2023-05-12T00:41:10.650Z,97.21
2023-05-12T00:43:14.452Z,97.34
2023-05-12T00:45:18.053Z,97.10
2023-05-12T00:47:22.335Z,97.65
2023-05-12T00:49:27.005Z,97.42
2023-05-12T00:51:30.905Z,97.36
2023-05-12T00:53:45.423Z,97.23
2023-05-12T00:55:53.652Z,97.12
2023-05-12T00:57:58.579Z,97.41
2023-05-12T01:00:04.951Z,97.38
2023-05-12T01:02:09.711Z,97.50
2023-05-12T01:04:13.556Z,97.34
2023-05-12T01:06:23.118Z,97.32
2023-05-12T01:08:27.712Z,97.36
2023-05-12T01:10:31.162Z,97.42
2023-05-12T01:12:34.637Z,97.22
2023-05-12T01:14:41.287Z,97.54
2023-05-12T01:16:49.253Z,96.96
2023-05-12T01:18:56.889Z,96.80
2023-05-12T01:21:01.739Z,97.08
2023-05-12T01:23:06.459Z,96.78
2023-05-12T01:25:12.886Z,97.11
2023-05-12T01:27:19.012Z,96.71
2023-05-12T01:29:23.961Z,97.11
2023-05-12T01:31:28.250Z,96.98
2023-05-12T01:33:32.445Z,97.14
2023-05-12T01:35:36.133Z,97.30
2023-05-12T01:37:39.617Z,97.41
2023-05-12T01:39:43.302Z,97.25
2023-05-12T01:41:52.209Z,97.23
2023-05-12T01:43:57.335Z,97.58
2023-05-12T01:46:01.112Z,97.61
2023-05-12T01:48:06.793Z,97.25
2023-05-12T01:50:11.286Z,97.40
2023-05-12T01:52:15.381Z,97.49
2023-05-12T01:54:18.910Z,97.46
2023-05-12T01:56:22.856Z,97.49
2023-05-12T01:58:26.503Z,97.56
2023-05-12T02:00:32.470Z,97.69
2023-05-12T02:02:38.585Z,97.84
2023-05-12T02:04:43.258Z,97.93
2023-05-12T02:06:46.858Z,97.78
2023-05-12T02:08:50.543Z,97.60
2023-05-12T02:11:05.754Z,97.71
2023-05-12T02:13:09.281Z,97.85
2023-05-12T02:15:13.067Z,97.92
2023-05-12T02:17:25.031Z,98.29
2023-05-12T02:19:28.608Z,98.30
2023-05-12T02:21:34.422Z,98.49
2023-05-12T02:23:38.040Z,98.77
2023-05-12T02:25:41.670Z,98.75
2023-05-12T02:27:45.768Z,98.91
2023-05-12T02:29:49.615Z,98.72
2023-05-12T02:31:54.170Z,98.69
2023-05-12T02:34:01.152Z,98.63
2023-05-12T02:36:06.198Z,98.58
2023-05-12T02:38:09.580Z,98.67
2023-05-12T02:40:13.746Z,98.62
2023-05-12T02:42:17.233Z,98.57
2023-05-12T02:44:22.383Z,98.31
2023-05-12T02:46:26.583Z,98.47
2023-05-12T02:48:30.709Z,98.10
2023-05-12T02:50:36.613Z,98.32
2023-05-12T02:52:40.093Z,98.31
2023-05-12T02:54:43.752Z,98.42
2023-05-12T02:56:47.364Z,98.20
2023-05-12T02:58:50.883Z,98.28
2023-05-12T03:01:06.724Z,98.11
2023-05-12T03:03:13.815Z,98.35
2023-05-12T03:05:17.530Z,98.14
2023-05-12T03:07:22.522Z,98.44
2023-05-12T03:09:26.093Z,98.22
2023-05-12T03:11:29.549Z,98.44
2023-05-12T03:13:33.416Z,98.31
2023-05-12T03:15:37.652Z,98.10
2023-05-12T03:17:41.546Z,98.19
2023-05-12T03:19:45.101Z,98.07
2023-05-12T03:21:48.535Z,97.88
2023-05-12T03:23:53.258Z,98.25
2023-05-12T03:25:56.616Z,98.38
2023-05-12T03:28:00.050Z,98.42
2023-05-12T03:30:05.100Z,98.27
2023-05-12T03:32:11.670Z,98.39
2023-05-12T03:34:15.354Z,98.18
2023-05-12T03:36:18.826Z,98.00
2023-05-12T03:38:22.307Z,97.86
2023-05-12T03:40:27.125Z,97.89
2023-05-12T03:42:30.578Z,97.85
2023-05-12T03:44:33.991Z,98.04
2023-05-12T03:46:37.555Z,97.55
2023-05-12T03:48:41.418Z,97.48
2023-05-12T03:50:45.390Z,98.05
2023-05-12T03:52:48.861Z,98.09
2023-05-12T03:54:52.566Z,98.01
2023-05-12T03:56:58.422Z,97.80
2023-05-12T03:59:02.125Z,98.06
2023-05-12T04:01:06.411Z,98.21
2023-05-12T04:03:10.146Z,98.12
2023-05-12T04:05:13.612Z,98.07
2023-05-12T04:07:17.846Z,98.03
2023-05-12T04:09:21.942Z,98.00
2023-05-12T04:11:25.365Z,98.17
2023-05-12T04:13:31.936Z,97.87
2023-05-12T04:15:35.695Z,98.03
2023-05-12T04:17:42.008Z,97.98
2023-05-12T04:19:52.571Z,97.77
2023-05-12T04:21:59.166Z,97.85
2023-05-12T04:24:02.591Z,97.73
2023-05-12T04:26:10.011Z,97.63
2023-05-12T04:28:13.637Z,97.30
2023-05-12T04:30:19.116Z,97.41
2023-05-12T04:32:22.921Z,97.52
2023-05-12T04:34:26.485Z,97.47
2023-05-12T04:36:30.181Z,97.38
2023-05-12T04:38:33.570Z,97.47
2023-05-12T04:40:37.277Z,97.26
2023-05-12T04:42:40.992Z,97.18
2023-05-12T04:44:47.054Z,97.19
2023-05-12T04:46:56.062Z,97.22
2023-05-12T04:48:59.634Z,96.94
2023-05-12T04:51:03.233Z,97.32
2023-05-12T04:53:06.982Z,96.99
2023-05-12T04:55:10.877Z,96.28
2023-05-12T04:57:14.252Z,96.71
2023-05-12T04:59:17.797Z,96.67
2023-05-12T05:01:22.696Z,96.51
2023-05-12T05:03:27.578Z,96.32
2023-05-12T05:05:34.289Z,96.21
2023-05-12T05:07:38.609Z,95.85
2023-05-12T05:09:42.006Z,95.61
2023-05-12T05:11:45.452Z,95.71
2023-05-12T05:13:49.203Z,95.64
2023-05-12T05:15:55.144Z,95.43
2023-05-12T05:18:01.886Z,95.38
2023-05-12T05:20:12.048Z,95.09
2023-05-12T05:22:16.122Z,95.03
2023-05-12T05:24:21.200Z,94.87
2023-05-12T05:26:25.065Z,94.77
2023-05-12T05:28:28.541Z,94.96
2023-05-12T05:30:32.163Z,94.83
2023-05-12T05:32:40.139Z,94.89
2023-05-12T05:34:44.297Z,94.85
2023-05-12T05:36:49.271Z,94.26
2023-05-12T05:38:53.001Z,94.47
2023-05-12T05:40:57.388Z,93.79
2023-05-12T05:43:02.748Z,93.86
2023-05-12T05:45:07.238Z,93.65
2023-05-12T05:47:11.842Z,93.61
2023-05-12T05:49:16.036Z,93.51
2023-05-12T05:51:19.586Z,93.40
2023-05-12T05:53:24.369Z,93.14
2023-05-12T05:55:29.468Z,93.19
2023-05-12T05:57:33.633Z,93.44
2023-05-12T05:59:37.558Z,92.88
2023-05-12T06:01:41.490Z,92.81
2023-05-12T06:03:46.616Z,92.88
2023-05-12T06:05:50.748Z,92.63
2023-05-12T06:07:54.577Z,92.59
2023-05-12T06:09:59.407Z,92.51
2023-05-12T06:12:03.395Z,92.46
2023-05-12T06:14:07.143Z,92.16
2023-05-12T06:16:10.605Z,91.91
2023-05-12T06:18:14.143Z,92.46
2023-05-12T06:20:18.244Z,92.45
2023-05-12T06:22:21.912Z,92.08
2023-05-12T06:24:25.334Z,92.11
2023-05-12T06:26:30.161Z,91.75
2023-05-12T06:28:33.964Z,91.94
2023-05-12T06:30:37.527Z,92.00
2023-05-12T06:32:41.035Z,91.90
2023-05-12T06:34:44.510Z,91.95
2023-05-12T06:36:48.217Z,91.69
2023-05-12T06:38:52.256Z,90.83
2023-05-12T06:40:55.934Z,91.33
2023-05-12T06:43:00.775Z,91.02
2023-05-12T06:45:05.161Z,90.84
2023-05-12T06:47:09.006Z,91.00
2023-05-12T06:49:12.486Z,90.92
2023-05-12T06:51:16.027Z,90.41
2023-05-12T06:53:19.533Z,90.20
2023-05-12T06:55:24.055Z,89.53
2023-05-12T06:57:27.926Z,89.42
2023-05-12T06:59:32.747Z,88.96
2023-05-12T07:01:36.249Z,89.48
2023-05-12T07:03:39.838Z,88.95
2023-05-12T07:05:43.335Z,88.89
2023-05-12T07:07:46.878Z,88.90
2023-05-12T07:09:50.638Z,88.28
2023-05-12T07:11:54.435Z,87.98
2023-05-12T07:13:57.814Z,88.37
2023-05-12T07:16:02.814Z,87.78
2023-05-12T07:18:06.494Z,87.55
2023-05-12T07:20:10.750Z,87.28
2023-05-12T07:22:14.473Z,87.10
2023-05-12T07:24:18.030Z,87.12
2023-05-12T07:26:24.138Z,86.81
2023-05-12T07:28:27.677Z,86.54
2023-05-12T07:30:31.213Z,86.42
2023-05-12T07:32:36.477Z,86.72
2023-05-12T07:34:40.044Z,86.67
2023-05-12T07:36:43.430Z,85.74
2023-05-12T07:38:46.982Z,85.96
2023-05-12T07:40:50.613Z,85.92
2023-05-12T07:42:54.090Z,85.41
2023-05-12T07:44:57.595Z,85.68
2023-05-12T07:47:01.165Z,84.90
2023-05-12T07:49:07.331Z,85.27
2023-05-12T07:51:10.932Z,84.57
2023-05-12T07:53:14.390Z,83.87
2023-05-12T07:55:18.848Z,84.23
2023-05-12T07:57:23.728Z,84.14
2023-05-12T07:59:27.256Z,83.58
2023-05-12T08:01:30.689Z,83.49
2023-05-12T08:03:34.303Z,83.65
2023-05-12T08:05:39.095Z,83.47
2023-05-12T08:07:43.664Z,83.20
2023-05-12T08:09:47.173Z,82.93
2023-05-12T08:11:51.831Z,82.84
2023-05-12T08:13:55.387Z,82.59
2023-05-12T08:15:58.810Z,82.70
2023-05-12T08:18:04.242Z,82.34
2023-05-12T08:20:15.688Z,82.36
2023-05-12T08:22:22.976Z,81.99
2023-05-12T08:24:27.250Z,81.62
2023-05-12T08:26:33.222Z,81.07
2023-05-12T08:28:36.783Z,81.10
2023-05-12T08:30:40.323Z,81.22
2023-05-12T08:32:43.983Z,81.16
2023-05-12T08:34:47.506Z,81.24
2023-05-12T08:36:51.067Z,81.24
2023-05-12T08:38:56.964Z,80.91
2023-05-12T08:41:13.571Z,80.65
2023-05-12T08:43:25.900Z,80.82
2023-05-12T08:45:30.485Z,80.37
2023-05-12T08:47:35.214Z,80.02
2023-05-12T08:49:43.718Z,79.91
2023-05-12T08:51:57.361Z,80.22
2023-05-12T08:54:05.584Z,79.42
2023-05-12T08:58:25.147Z,79.71
2023-05-12T09:00:36.098Z,79.34
2023-05-12T09:02:52.081Z,79.12
2023-05-12T09:04:57.192Z,79.12
2023-05-12T09:07:00.992Z,78.68
2023-05-12T09:09:05.783Z,77.52
2023-05-12T09:11:13.417Z,77.67
2023-05-12T09:13:21.443Z,77.98
2023-05-12T09:15:30.997Z,78.06
2023-05-12T09:17:34.826Z,76.74
2023-05-12T09:19:38.278Z,77.01
2023-05-12T09:21:42.150Z,76.69
2023-05-12T09:23:55.817Z,76.93
2023-05-12T09:26:03.952Z,77.16
2023-05-12T09:28:07.399Z,76.79
2023-05-12T09:30:11.612Z,75.16
2023-05-12T09:32:15.122Z,74.83
2023-05-12T09:34:19.164Z,74.82
2023-05-12T09:36:24.079Z,74.99
2023-05-12T09:38:27.511Z,74.23
2023-05-12T09:40:30.969Z,74.23
2023-05-12T09:42:36.798Z,73.27
2023-05-12T09:44:40.814Z,73.30
2023-05-12T09:46:44.713Z,73.21
2023-05-12T09:48:49.214Z,72.89
2023-05-12T09:50:53.197Z,71.76
2023-05-12T09:52:57.170Z,70.94
2023-05-12T09:55:08.392Z,71.10
2023-05-12T09:57:14.109Z,71.35
2023-05-12T09:59:19.856Z,71.51
2023-05-12T10:01:24.223Z,70.16
2023-05-12T10:03:31.839Z,70.58
2023-05-12T10:05:35.609Z,70.41
2023-05-12T10:07:39.330Z,69.41
2023-05-12T10:09:45.144Z,69.75
2023-05-12T10:11:50.628Z,69.94
2023-05-12T10:13:55.637Z,68.90
2023-05-12T10:16:01.567Z,68.63
2023-05-12T10:18:05.320Z,68.60
2023-05-12T10:20:10.509Z,68.18
2023-05-12T10:22:18.261Z,67.27
2023-05-12T10:24:22.817Z,67.47
2023-05-12T10:26:27.364Z,66.91
2023-05-12T10:28:31.595Z,66.80
2023-05-12T10:30:35.930Z,65.70
2023-05-12T10:32:40.864Z,65.49
2023-05-12T10:34:44.271Z,64.03
2023-05-12T10:36:50.300Z,64.44
2023-05-12T10:41:01.227Z,61.98
2023-05-12T10:43:04.961Z,61.52
2023-05-12T10:45:18.265Z,62.12
2023-05-12T10:47:32.019Z,61.38
2023-05-12T10:49:41.871Z,61.83
2023-05-12T10:51:49.714Z,61.17
2023-05-12T10:53:55.109Z,61.18
2023-05-12T10:55:58.688Z,60.46
2023-05-12T10:58:07.407Z,59.65
2023-05-12T11:00:14.769Z,58.57
2023-05-12T11:02:20.974Z,57.84
2023-05-12T11:04:40.672Z,57.92
2023-05-12T11:06:46.974Z,57.25
2023-05-12T11:08:51.555Z,56.24
2023-05-12T11:10:56.495Z,54.67
2023-05-12T11:13:00.554Z,55.50
2023-05-12T11:15:05.322Z,56.16
2023-05-12T11:17:09.560Z,53.88
2023-05-12T11:19:13.758Z,53.71
2023-05-12T11:21:18.641Z,53.26
2023-05-12T11:23:27.239Z,52.68
2023-05-12T11:25:31.258Z,51.97
2023-05-12T11:27:34.696Z,51.78
2023-05-12T11:29:39.965Z,51.39
2023-05-12T11:31:48.542Z,51.02
2023-05-12T11:34:11.926Z,50.97
2023-05-12T11:36:21.664Z,51.63
2023-05-12T11:38:27.624Z,50.69
2023-05-12T11:40:31.061Z,50.90
2023-05-12T11:42:34.502Z,49.93
2023-05-12T11:44:38.554Z,49.44
2023-05-12T11:46:42.591Z,49.18
2023-05-12T11:48:46.093Z,48.67
2023-05-12T11:50:51.523Z,49.16
2023-05-12T11:52:57.918Z,49.10
2023-05-12T11:55:01.736Z,49.59
2023-05-12T11:57:05.664Z,49.16
2023-05-12T11:59:09.280Z,49.93
2023-05-12T12:01:13.887Z,50.19
2023-05-12T12:03:17.803Z,50.30
2023-05-12T12:05:22.169Z,49.73
2023-05-12T12:07:32.528Z,49.88
2023-05-12T12:09:40.606Z,50.76
2023-05-12T12:11:43.982Z,50.83
2023-05-12T12:13:56.364Z,51.07
2023-05-12T12:15:59.834Z,51.36
2023-05-12T12:18:03.403Z,51.59
2023-05-12T12:20:08.353Z,51.88
2023-05-12T12:22:12.366Z,51.80
2023-05-12T12:24:15.953Z,52.44
2023-05-12T12:26:22.957Z,53.00
2023-05-12T12:28:26.390Z,53.51
2023-05-12T12:30:29.879Z,54.19
2023-05-12T12:32:33.356Z,54.32
2023-05-12T12:34:36.806Z,54.90
2023-05-12T12:36:41.083Z,54.64
2023-05-12T12:38:44.721Z,54.55
2023-05-12T12:40:48.217Z,55.17
2023-05-12T12:42:53.472Z,55.69
2023-05-12T12:44:56.960Z,55.78
2023-05-12T12:47:00.654Z,55.96
2023-05-12T12:49:04.160Z,55.70
2023-05-12T12:51:07.728Z,55.15
2023-05-12T12:53:11.268Z,55.36
2023-05-12T12:55:14.862Z,54.01
2023-05-12T12:57:19.717Z,53.64
2023-05-12T12:59:24.502Z,52.88
2023-05-12T13:01:28.483Z,52.06
2023-05-12T13:03:32.074Z,52.12
2023-05-12T13:05:35.806Z,51.88
2023-05-12T13:07:39.364Z,50.56
2023-05-12T13:09:42.973Z,49.81
2023-05-12T13:11:46.894Z,49.88
2023-05-12T13:13:50.737Z,49.63
2023-05-12T13:15:55.680Z,49.74
2023-05-12T13:17:59.520Z,49.52
2023-05-12T13:20:04.008Z,48.35
2023-05-12T13:22:07.527Z,48.60
2023-05-12T13:24:11.046Z,48.58
2023-05-12T13:26:14.726Z,48.47
2023-05-12T13:28:18.326Z,48.25
2023-05-12T13:30:25.014Z,48.26
2023-05-12T13:32:30.156Z,48.86
2023-05-12T13:34:33.798Z,48.71
2023-05-12T13:36:37.496Z,48.17
2023-05-12T13:38:41.093Z,47.26
2023-05-12T13:40:44.781Z,47.29
2023-05-12T13:42:48.328Z,47.33
2023-05-12T13:44:51.978Z,47.39
2023-05-12T13:46:55.560Z,48.06
2023-05-12T13:49:00.736Z,48.67
2023-05-12T13:51:04.387Z,48.63
2023-05-12T13:53:07.832Z,48.71
2023-05-12T13:55:16.410Z,48.75
2023-05-12T13:57:24.084Z,48.53
2023-05-12T13:59:27.718Z,49.79
2023-05-12T14:01:32.189Z,51.41
2023-05-12T14:03:37.006Z,52.58
2023-05-12T14:05:41.983Z,53.95
2023-05-12T14:07:45.525Z,54.72
2023-05-12T14:09:49.040Z,55.21
2023-05-12T14:11:54.406Z,55.52
2023-05-12T14:14:00.229Z,55.96
2023-05-12T14:16:04.004Z,56.47
2023-05-12T14:18:07.727Z,56.74
2023-05-12T14:20:11.802Z,56.89
2023-05-12T14:22:25.306Z,57.03
2023-05-12T14:24:30.282Z,57.08
2023-05-12T14:26:33.656Z,56.81
2023-05-12T14:28:40.613Z,56.57
2023-05-12T14:30:45.211Z,56.26
2023-05-12T14:32:48.884Z,55.42
2023-05-12T14:34:52.413Z,55.11
2023-05-12T14:36:55.883Z,55.39
2023-05-12T14:39:00.613Z,55.04
2023-05-12T14:41:04.079Z,53.34
2023-05-12T14:43:07.572Z,52.28
2023-05-12T14:45:11.554Z,50.71
2023-05-12T14:47:15.128Z,49.82
2023-05-12T14:49:21.233Z,48.38
2023-05-12T14:51:24.640Z,47.40
2023-05-12T14:53:28.051Z,46.98
2023-05-12T14:55:32.892Z,46.36
2023-05-12T14:57:37.735Z,46.49
2023-05-12T14:59:41.212Z,45.15
2023-05-12T15:01:44.712Z,45.42
2023-05-12T15:03:48.173Z,45.42
2023-05-12T15:07:58.200Z,43.95
2023-05-12T15:10:01.904Z,44.25
2023-05-12T15:12:07.534Z,44.15
2023-05-12T15:14:11.445Z,43.43
2023-05-12T15:16:14.937Z,43.94
2023-05-12T15:18:18.393Z,43.86
2023-05-12T15:20:21.831Z,43.67
2023-05-12T15:22:25.398Z,43.35
2023-05-12T15:24:29.246Z,43.34
2023-05-12T15:26:34.717Z,43.80
2023-05-12T15:28:40.477Z,44.32
2023-05-12T15:30:45.047Z,44.37
2023-05-12T15:32:48.528Z,44.40
2023-05-12T15:34:52.093Z,44.63
2023-05-12T15:38:58.772Z,43.13
2023-05-12T15:41:02.249Z,42.64
2023-05-12T15:43:06.010Z,42.47
2023-05-12T15:45:11.442Z,42.35
2023-05-12T15:47:14.916Z,43.09
2023-05-12T15:49:18.467Z,43.45
2023-05-12T15:51:22.124Z,44.11
2023-05-12T15:53:25.739Z,43.87
2023-05-12T15:55:29.899Z,42.78
2023-05-12T15:57:33.300Z,43.41
2023-05-12T15:59:37.427Z,43.95
2023-05-12T16:01:42.285Z,43.52
2023-05-12T16:03:45.917Z,43.14
2023-05-12T16:05:49.563Z,43.01
2023-05-12T16:07:54.691Z,43.35
2023-05-12T16:09:58.424Z,43.50
2023-05-12T16:12:02.005Z,43.09
2023-05-12T16:14:05.663Z,42.98
2023-05-12T16:16:09.239Z,42.45
2023-05-12T16:18:14.106Z,42.47
2023-05-12T16:20:17.623Z,42.40
2023-05-12T16:22:21.255Z,43.08
2023-05-12T16:24:28.222Z,43.40
2023-05-12T16:26:31.714Z,44.27
2023-05-12T16:28:39.212Z,45.03
2023-05-12T16:30:42.949Z,45.74
2023-05-12T16:32:47.193Z,46.29
2023-05-12T16:34:52.258Z,47.13
2023-05-12T16:36:55.699Z,47.78
2023-05-12T16:38:59.462Z,48.11
2023-05-12T16:41:03.048Z,48.22
2023-05-12T16:43:06.656Z,48.57
2023-05-12T16:45:12.059Z,48.77
2023-05-12T16:47:16.120Z,49.00
2023-05-12T16:49:19.607Z,48.68
2023-05-12T16:51:24.423Z,49.52
2023-05-12T16:53:28.846Z,49.29
2023-05-12T16:55:32.262Z,49.21
2023-05-12T16:57:36.263Z,49.17
2023-05-12T16:59:39.730Z,49.42
2023-05-12T17:01:43.166Z,49.16
2023-05-12T17:03:47.924Z,49.43
2023-05-12T17:05:51.642Z,49.46
2023-05-12T17:07:56.547Z,49.81
2023-05-12T17:09:59.997Z,49.45
2023-05-12T17:12:04.573Z,50.09
2023-05-12T17:14:08.203Z,50.27
2023-05-12T17:16:11.636Z,50.34
2023-05-12T17:18:15.123Z,50.65
2023-05-12T17:20:18.932Z,51.30
2023-05-12T17:22:22.757Z,51.31
2023-05-12T17:24:28.032Z,51.63
2023-05-12T17:26:31.661Z,51.59
2023-05-12T17:28:35.047Z,52.75
2023-05-12T17:30:38.470Z,53.36
2023-05-12T17:32:43.959Z,54.00
2023-05-12T17:34:50.302Z,55.22
2023-05-12T17:36:54.316Z,56.42
2023-05-12T17:38:57.798Z,56.85
2023-05-12T17:41:02.563Z,57.75
2023-05-12T17:43:05.994Z,58.63
2023-05-12T17:45:10.245Z,58.99
2023-05-12T17:47:15.978Z,59.12
2023-05-12T17:49:19.494Z,59.18
2023-05-12T17:51:22.898Z,59.59
2023-05-12T17:53:26.552Z,59.78
2023-05-12T17:55:29.968Z,60.44
2023-05-12T17:57:34.896Z,60.56
2023-05-12T17:59:38.352Z,60.85
2023-05-12T18:01:41.862Z,60.84
2023-05-12T18:03:45.451Z,61.62
2023-05-12T18:05:48.887Z,61.57
2023-05-12T18:07:52.585Z,61.99
2023-05-12T18:09:56.179Z,62.27
2023-05-12T18:11:59.687Z,62.04
2023-05-12T18:14:05.832Z,62.10
2023-05-12T18:16:21.295Z,61.87
2023-05-12T18:18:28.758Z,61.36
2023-05-12T18:20:32.241Z,61.91
2023-05-12T18:22:35.801Z,62.36
2023-05-12T18:24:39.240Z,62.37
2023-05-12T18:26:43.196Z,62.24
2023-05-12T18:28:46.791Z,62.82
2023-05-12T18:30:51.759Z,62.84
2023-05-12T18:32:55.634Z,63.19
2023-05-12T18:34:59.088Z,63.28
2023-05-12T18:37:02.825Z,63.09
2023-05-12T18:39:07.225Z,62.83
2023-05-12T18:41:10.976Z,63.22
2023-05-12T18:43:14.534Z,63.35
2023-05-12T18:45:19.594Z,63.39
2023-05-12T18:47:24.639Z,63.85
2023-05-12T18:49:28.101Z,64.01
2023-05-12T18:51:31.698Z,63.85
2023-05-12T18:53:35.248Z,63.80
2023-05-12T18:55:38.686Z,63.91
2023-05-12T18:57:42.152Z,63.94
2023-05-12T18:59:45.720Z,63.81
2023-05-12T19:01:49.215Z,63.86
2023-05-12T19:03:54.261Z,63.73
2023-05-12T19:05:57.746Z,63.72
2023-05-12T19:08:01.953Z,63.82
2023-05-12T19:10:06.162Z,64.79
2023-05-12T19:12:11.182Z,64.95
2023-05-12T19:14:15.955Z,65.50
2023-05-12T19:16:19.552Z,65.77
2023-05-12T19:18:23.245Z,66.16
2023-05-12T19:20:28.155Z,66.37
2023-05-12T19:22:31.696Z,66.63
2023-05-12T19:24:35.362Z,66.75
2023-05-12T19:26:38.924Z,66.35
2023-05-12T19:28:42.405Z,66.64
2023-05-12T19:30:45.847Z,66.83
2023-05-12T19:32:50.118Z,66.92
2023-05-12T19:34:53.721Z,66.90
2023-05-12T19:37:00.781Z,67.51
2023-05-12T19:39:04.342Z,67.73
2023-05-12T19:41:07.889Z,68.76
2023-05-12T19:43:12.600Z,69.14
2023-05-12T19:45:15.975Z,69.14
2023-05-12T19:47:24.977Z,69.75
2023-05-12T19:49:28.405Z,69.68
2023-05-12T19:51:31.967Z,69.87
2023-05-12T19:53:37.000Z,70.13
2023-05-12T19:55:40.578Z,70.00
2023-05-12T19:57:44.302Z,70.05
2023-05-12T19:59:47.738Z,70.17
2023-05-12T20:01:52.250Z,70.17
2023-05-12T20:03:55.878Z,70.38
2023-05-12T20:05:59.414Z,70.27
2023-05-12T20:08:02.873Z,70.22
2023-05-12T20:10:10.725Z,71.01
2023-05-12T20:12:14.107Z,71.39
2023-05-12T20:14:17.523Z,71.85
2023-05-12T20:16:21.240Z,72.48
2023-05-12T20:18:24.772Z,72.69
2023-05-12T20:20:28.319Z,72.62
2023-05-12T20:22:31.781Z,72.86
2023-05-12T20:24:35.244Z,72.92
2023-05-12T20:26:40.694Z,72.96
2023-05-12T20:28:44.031Z,73.14
2023-05-12T20:30:47.438Z,73.35
2023-05-12T20:32:51.130Z,73.31
2023-05-12T20:34:54.622Z,73.55
2023-05-12T20:36:58.071Z,73.99
2023-05-12T20:39:01.460Z,73.89
2023-05-12T20:41:06.209Z,74.04
2023-05-12T20:43:13.476Z,74.13
2023-05-12T20:45:17.349Z,74.32
2023-05-12T20:47:21.072Z,74.22
2023-05-12T20:49:24.753Z,74.75
2023-05-12T20:51:28.527Z,74.74
2023-05-12T20:53:31.980Z,75.01
2023-05-12T20:55:35.564Z,75.06
2023-05-12T20:57:40.132Z,75.12
2023-05-12T20:59:45.402Z,75.44
2023-05-12T21:01:48.986Z,75.47
2023-05-12T21:03:52.640Z,75.48
2023-05-12T21:05:56.138Z,75.77
2023-05-12T21:07:59.988Z,76.01
2023-05-12T21:10:03.734Z,76.03
2023-05-12T21:12:07.877Z,76.00
2023-05-12T21:14:11.347Z,75.92
2023-05-12T21:16:16.389Z,76.03
2023-05-12T21:18:19.828Z,76.20
2023-05-12T21:20:23.317Z,76.35
2023-05-12T21:22:27.689Z,76.42
2023-05-12T21:24:31.361Z,76.63
2023-05-12T21:26:34.748Z,77.13
2023-05-12T21:28:38.416Z,77.41
2023-05-12T21:30:41.910Z,77.41
2023-05-12T21:32:47.135Z,77.42
2023-05-12T21:34:50.657Z,77.29
2023-05-12T21:36:54.784Z,77.34
2023-05-12T21:38:58.493Z,77.21
2023-05-12T21:41:02.085Z,77.19
2023-05-12T21:43:15.939Z,77.39
2023-05-12T21:45:21.514Z,77.33
2023-05-12T21:47:26.974Z,77.49
2023-05-12T21:49:31.979Z,77.41
2023-05-12T21:51:35.459Z,77.60
2023-05-12T21:53:42.052Z,77.58
2023-05-12T21:55:45.987Z,77.57
2023-05-12T21:57:49.643Z,77.58
2023-05-12T21:59:53.174Z,77.64
2023-05-12T22:01:56.998Z,77.85
2023-05-12T22:04:00.836Z,77.65
2023-05-12T22:06:07.396Z,77.68
2023-05-12T22:08:10.885Z,77.68
2023-05-12T22:10:14.553Z,77.80
2023-05-12T22:12:18.587Z,78.14
2023-05-12T22:14:22.107Z,78.18
2023-05-12T22:16:38.235Z,78.30
2023-05-12T22:18:45.765Z,78.33
2023-05-12T22:20:49.224Z,78.35
2023-05-12T22:22:54.008Z,78.20
2023-05-12T22:24:57.409Z,78.25
2023-05-12T22:27:01.064Z,78.24
2023-05-12T22:29:04.420Z,78.34
2023-05-12T22:31:07.918Z,78.18
2023-05-12T22:33:11.429Z,78.06
2023-05-12T22:35:15.164Z,78.31
2023-05-12T22:37:18.577Z,78.32
2023-05-12T22:39:23.395Z,78.29
2023-05-12T22:41:26.924Z,78.43
2023-05-12T22:43:30.360Z,78.81
2023-05-12T22:45:33.731Z,78.95
2023-05-12T22:47:37.294Z,79.06
2023-05-12T22:49:40.965Z,79.32
2023-05-12T22:51:44.413Z,80.01
2023-05-12T22:53:47.851Z,80.05
2023-05-12T22:55:53.277Z,80.41
2023-05-12T22:57:56.966Z,79.98
2023-05-12T23:00:00.380Z,79.70
2023-05-12T23:02:03.836Z,79.86
2023-05-12T23:04:08.015Z,79.89
2023-05-12T23:06:13.706Z,79.82
2023-05-12T23:08:17.042Z,79.93
2023-05-12T23:10:20.833Z,79.90
2023-05-12T23:12:25.889Z,80.07
2023-05-12T23:14:29.464Z,79.90
2023-05-12T23:16:32.944Z,79.62
2023-05-12T23:18:36.418Z,79.75
2023-05-12T23:20:39.814Z,79.58
2023-05-12T23:22:43.311Z,79.58
2023-05-12T23:24:46.725Z,79.43
2023-05-12T23:26:50.608Z,79.53
2023-05-12T23:28:55.515Z,79.52
2023-05-12T23:30:58.917Z,79.44
2023-05-12T23:33:02.514Z,79.53
2023-05-12T23:35:07.093Z,79.52
2023-05-12T23:37:10.814Z,79.32
2023-05-12T23:39:14.721Z,79.36
2023-05-12T23:41:18.214Z,79.62
2023-05-12T23:43:21.745Z,79.58
2023-05-12T23:45:26.566Z,79.76
2023-05-12T23:47:30.213Z,79.68
2023-05-12T23:49:33.688Z,80.07
2023-05-12T23:51:37.301Z,80.21
2023-05-12T23:53:41.127Z,80.52
2023-05-12T23:55:44.546Z,81.03
2023-05-12T23:57:48.186Z,80.94
2023-05-12T23:59:51.644Z,80.50
